sensor_id;sensor_type;location;lat;lon;timestamp;pressure;altitude;pressure_sealevel;temperature;humidity
68712;BME280;55690;51.566;19.198;2024-03-29T00:02:29;100054.34;;;11.19;85.07
68712;BME280;55690;51.566;19.198;2024-03-29T00:06:34;100068.79;;;11.20;84.92
68712;BME280;55690;51.566;19.198;2024-03-29T00:10:41;100071.77;;;10.96;85.49
68712;BME280;55690;51.566;19.198;2024-03-29T00:14:47;100078.86;;;11.08;84.41
68712;BME280;55690;51.566;19.198;2024-03-29T00:18:53;100070.18;;;11.14;84.99
68712;BME280;55690;51.566;19.198;2024-03-29T00:22:59;100085.88;;;11.11;84.57
68712;BME280;55690;51.566;19.198;2024-03-29T00:27:05;100099.20;;;11.14;84.13
68712;BME280;55690;51.566;19.198;2024-03-29T00:31:11;100104.52;;;11.15;84.07
68712;BME280;55690;51.566;19.198;2024-03-29T00:35:18;100126.05;;;11.07;84.17
68712;BME280;55690;51.566;19.198;2024-03-29T00:39:24;100131.48;;;11.07;84.54
68712;BME280;55690;51.566;19.198;2024-03-29T00:43:30;100136.96;;;10.96;85.80
68712;BME280;55690;51.566;19.198;2024-03-29T00:47:37;100152.27;;;10.97;85.37
68712;BME280;55690;51.566;19.198;2024-03-29T00:51:42;100159.34;;;10.88;84.67
68712;BME280;55690;51.566;19.198;2024-03-29T00:55:48;100163.91;;;10.88;85.64
68712;BME280;55690;51.566;19.198;2024-03-29T00:59:55;100180.01;;;10.80;85.15
68712;BME280;55690;51.566;19.198;2024-03-29T01:04:01;100185.82;;;10.75;84.63
68712;BME280;55690;51.566;19.198;2024-03-29T01:08:07;100202.88;;;10.66;84.69
68712;BME280;55690;51.566;19.198;2024-03-29T01:12:13;100224.60;;;10.66;85.70
68712;BME280;55690;51.566;19.198;2024-03-29T01:16:19;100229.78;;;10.69;85.25
68712;BME280;55690;51.566;19.198;2024-03-29T01:20:25;100242.26;;;10.60;85.38
68712;BME280;55690;51.566;19.198;2024-03-29T01:24:32;100244.85;;;10.51;85.65
68712;BME280;55690;51.566;19.198;2024-03-29T01:28:38;100270.02;;;10.42;86.22
68712;BME280;55690;51.566;19.198;2024-03-29T01:32:44;100282.52;;;10.33;86.21
68712;BME280;55690;51.566;19.198;2024-03-29T01:36:50;100291.21;;;10.14;86.60
68712;BME280;55690;51.566;19.198;2024-03-29T01:40:56;100296.26;;;10.08;86.12
68712;BME280;55690;51.566;19.198;2024-03-29T01:45:03;100315.48;;;9.93;87.40
68712;BME280;55690;51.566;19.198;2024-03-29T01:49:09;100324.70;;;9.80;87.31
68712;BME280;55690;51.566;19.198;2024-03-29T01:53:17;100329.48;;;9.76;87.21
68712;BME280;55690;51.566;19.198;2024-03-29T01:57:21;100336.76;;;9.76;87.16
68712;BME280;55690;51.566;19.198;2024-03-29T02:01:27;100349.33;;;9.77;86.96
68712;BME280;55690;51.566;19.198;2024-03-29T02:05:34;100352.57;;;9.58;87.40
68712;BME280;55690;51.566;19.198;2024-03-29T02:09:40;100374.78;;;9.63;87.09
68712;BME280;55690;51.566;19.198;2024-03-29T02:13:47;100379.56;;;9.59;88.00
68712;BME280;55690;51.566;19.198;2024-03-29T02:17:52;100392.34;;;9.46;88.45
68712;BME280;55690;51.566;19.198;2024-03-29T02:21:59;100404.31;;;9.31;89.26
68712;BME280;55690;51.566;19.198;2024-03-29T02:26:04;100410.73;;;9.17;90.10
68712;BME280;55690;51.566;19.198;2024-03-29T02:30:13;100411.59;;;9.18;90.57
68712;BME280;55690;51.566;19.198;2024-03-29T02:34:17;100403.53;;;9.05;90.92
68712;BME280;55690;51.566;19.198;2024-03-29T02:38:23;100415.73;;;9.11;90.77
68712;BME280;55690;51.566;19.198;2024-03-29T02:42:29;100424.55;;;9.02;91.26
68712;BME280;55690;51.566;19.198;2024-03-29T02:46:35;100437.46;;;8.85;92.15
68712;BME280;55690;51.566;19.198;2024-03-29T02:50:41;100439.09;;;8.75;92.81
68712;BME280;55690;51.566;19.198;2024-03-29T02:54:48;100438.75;;;8.80;92.96
68712;BME280;55690;51.566;19.198;2024-03-29T02:58:55;100429.88;;;8.78;93.07
68712;BME280;55690;51.566;19.198;2024-03-29T03:03:00;100431.49;;;8.80;93.00
68712;BME280;55690;51.566;19.198;2024-03-29T03:07:06;100434.77;;;8.47;94.46
68712;BME280;55690;51.566;19.198;2024-03-29T03:11:20;100447.42;;;8.72;93.36
68712;BME280;55690;51.566;19.198;2024-03-29T03:15:21;100459.69;;;8.65;93.92
68712;BME280;55690;51.566;19.198;2024-03-29T03:19:24;100468.78;;;8.64;94.26
68712;BME280;55690;51.566;19.198;2024-03-29T03:23:31;100477.88;;;8.63;94.51
68712;BME280;55690;51.566;19.198;2024-03-29T03:27:37;100492.04;;;8.54;94.79
68712;BME280;55690;51.566;19.198;2024-03-29T03:31:43;100498.95;;;8.45;96.15
68712;BME280;55690;51.566;19.198;2024-03-29T03:35:49;100500.27;;;8.52;95.12
68712;BME280;55690;51.566;19.198;2024-03-29T03:39:55;100504.37;;;8.45;95.87
68712;BME280;55690;51.566;19.198;2024-03-29T03:44:02;100498.62;;;8.37;94.90
68712;BME280;55690;51.566;19.198;2024-03-29T03:48:09;100508.56;;;8.37;96.15
68712;BME280;55690;51.566;19.198;2024-03-29T03:52:14;100518.31;;;8.39;95.77
68712;BME280;55690;51.566;19.198;2024-03-29T03:56:20;100509.91;;;8.29;96.09
68712;BME280;55690;51.566;19.198;2024-03-29T04:00:26;100520.14;;;8.39;95.85
68712;BME280;55690;51.566;19.198;2024-03-29T04:04:32;100516.30;;;8.28;96.00
68712;BME280;55690;51.566;19.198;2024-03-29T04:08:39;100523.65;;;8.26;95.94
68712;BME280;55690;51.566;19.198;2024-03-29T04:12:45;100527.11;;;8.28;95.55
68712;BME280;55690;51.566;19.198;2024-03-29T04:16:51;100509.91;;;8.29;95.25
68712;BME280;55690;51.566;19.198;2024-03-29T04:20:58;100514.25;;;8.32;95.09
68712;BME280;55690;51.566;19.198;2024-03-29T04:25:04;100508.49;;;8.24;94.90
68712;BME280;55690;51.566;19.198;2024-03-29T04:29:10;100514.45;;;8.16;95.42
68712;BME280;55690;51.566;19.198;2024-03-29T04:33:16;100509.24;;;8.13;96.22
68712;BME280;55690;51.566;19.198;2024-03-29T04:37:22;100516.70;;;8.10;95.82
68712;BME280;55690;51.566;19.198;2024-03-29T04:41:28;100525.22;;;8.04;96.26
68712;BME280;55690;51.566;19.198;2024-03-29T04:45:34;100526.49;;;7.98;96.96
68712;BME280;55690;51.566;19.198;2024-03-29T04:49:40;100526.49;;;7.98;96.80
68712;BME280;55690;51.566;19.198;2024-03-29T04:53:47;100535.94;;;8.05;96.60
68712;BME280;55690;51.566;19.198;2024-03-29T04:57:53;100536.34;;;7.99;97.01
68712;BME280;55690;51.566;19.198;2024-03-29T05:02:00;100539.97;;;8.12;96.61
68712;BME280;55690;51.566;19.198;2024-03-29T05:06:05;100545.49;;;8.23;95.66
68712;BME280;55690;51.566;19.198;2024-03-29T05:10:11;100538.14;;;8.25;95.76
68712;BME280;55690;51.566;19.198;2024-03-29T05:14:19;100543.66;;;8.24;96.28
68712;BME280;55690;51.566;19.198;2024-03-29T05:18:24;100544.98;;;8.31;96.48
68712;BME280;55690;51.566;19.198;2024-03-29T05:22:30;100550.88;;;8.38;96.32
68712;BME280;55690;51.566;19.198;2024-03-29T05:26:36;100564.14;;;8.55;95.64
68712;BME280;55690;51.566;19.198;2024-03-29T05:30:43;100573.89;;;8.70;95.21
68712;BME280;55690;51.566;19.198;2024-03-29T05:34:48;100592.22;;;8.79;95.16
68712;BME280;55690;51.566;19.198;2024-03-29T05:38:55;100608.80;;;8.87;94.92
68712;BME280;55690;51.566;19.198;2024-03-29T05:43:01;100611.41;;;8.89;94.95
68712;BME280;55690;51.566;19.198;2024-03-29T05:47:07;100611.51;;;8.87;94.52
68712;BME280;55690;51.566;19.198;2024-03-29T05:51:13;100620.84;;;8.96;94.57
68712;BME280;55690;51.566;19.198;2024-03-29T05:55:19;100624.63;;;8.93;94.19
68712;BME280;55690;51.566;19.198;2024-03-29T05:59:25;100625.72;;;9.16;93.99
68712;BME280;55690;51.566;19.198;2024-03-29T06:03:32;100608.39;;;9.31;92.81
68712;BME280;55690;51.566;19.198;2024-03-29T06:07:38;100602.33;;;9.28;92.92
68712;BME280;55690;51.566;19.198;2024-03-29T06:11:44;100599.30;;;9.32;93.09
68712;BME280;55690;51.566;19.198;2024-03-29T06:15:50;100611.08;;;9.57;91.88
68712;BME280;55690;51.566;19.198;2024-03-29T06:20:05;100619.42;;;9.54;92.38
68712;BME280;55690;51.566;19.198;2024-03-29T06:24:11;100621.05;;;9.56;92.36
68712;BME280;55690;51.566;19.198;2024-03-29T06:28:17;100620.61;;;9.75;92.52
68712;BME280;55690;51.566;19.198;2024-03-29T06:32:19;100624.73;;;9.68;91.02
68712;BME280;55690;51.566;19.198;2024-03-29T06:36:21;100629.83;;;9.73;90.79
68712;BME280;55690;51.566;19.198;2024-03-29T06:40:27;100625.73;;;10.04;90.16
68712;BME280;55690;51.566;19.198;2024-03-29T06:44:34;100642.95;;;10.28;89.43
68712;BME280;55690;51.566;19.198;2024-03-29T06:48:40;100637.93;;;10.58;87.98
68712;BME280;55690;51.566;19.198;2024-03-29T06:52:46;100629.79;;;10.93;85.72
68712;BME280;55690;51.566;19.198;2024-03-29T06:56:53;100637.79;;;11.30;84.85
68712;BME280;55690;51.566;19.198;2024-03-29T07:00:58;100632.16;;;11.66;83.56
68712;BME280;55690;51.566;19.198;2024-03-29T07:05:04;100630.99;;;12.36;81.88
68712;BME280;55690;51.566;19.198;2024-03-29T07:09:11;100626.16;;;12.72;79.72
68712;BME280;55690;51.566;19.198;2024-03-29T07:13:16;100606.70;;;13.59;79.23
68712;BME280;55690;51.566;19.198;2024-03-29T07:17:23;100590.75;;;13.95;77.66
68712;BME280;55690;51.566;19.198;2024-03-29T07:21:30;100595.38;;;14.04;77.20
68712;BME280;55690;51.566;19.198;2024-03-29T07:25:35;100587.09;;;14.15;74.77
68712;BME280;55690;51.566;19.198;2024-03-29T07:29:41;100600.40;;;14.58;74.39
68712;BME280;55690;51.566;19.198;2024-03-29T07:33:47;100593.77;;;15.00;74.01
68712;BME280;55690;51.566;19.198;2024-03-29T07:37:54;100606.89;;;14.67;73.93
68712;BME280;55690;51.566;19.198;2024-03-29T07:42:00;100608.16;;;14.92;72.88
68712;BME280;55690;51.566;19.198;2024-03-29T07:46:07;100613.88;;;15.27;73.83
68712;BME280;55690;51.566;19.198;2024-03-29T07:50:12;100611.27;;;15.36;72.42
68712;BME280;55690;51.566;19.198;2024-03-29T07:54:18;100616.17;;;15.22;72.88
68712;BME280;55690;51.566;19.198;2024-03-29T07:58:24;100641.35;;;15.45;71.86
68712;BME280;55690;51.566;19.198;2024-03-29T08:02:32;100637.66;;;14.98;71.46
68712;BME280;55690;51.566;19.198;2024-03-29T08:06:37;100642.09;;;15.57;71.77
68712;BME280;55690;51.566;19.198;2024-03-29T08:10:43;100645.82;;;15.46;73.17
68712;BME280;55690;51.566;19.198;2024-03-29T08:14:49;100644.10;;;15.36;71.58
68712;BME280;55690;51.566;19.198;2024-03-29T08:18:55;100648.59;;;15.93;70.58
68712;BME280;55690;51.566;19.198;2024-03-29T08:23:01;100642.80;;;15.59;69.42
68712;BME280;55690;51.566;19.198;2024-03-29T08:27:08;100627.84;;;15.90;69.17
68712;BME280;55690;51.566;19.198;2024-03-29T08:31:14;100639.13;;;15.78;71.01
68712;BME280;55690;51.566;19.198;2024-03-29T08:35:20;100646.11;;;15.43;69.61
68712;BME280;55690;51.566;19.198;2024-03-29T08:39:26;100641.31;;;15.64;68.43
68712;BME280;55690;51.566;19.198;2024-03-29T08:43:32;100649.91;;;16.16;68.42
68712;BME280;55690;51.566;19.198;2024-03-29T08:47:38;100651.66;;;15.80;67.98
68712;BME280;55690;51.566;19.198;2024-03-29T08:51:45;100651.88;;;15.59;68.23
68712;BME280;55690;51.566;19.198;2024-03-29T08:55:51;100655.49;;;15.97;68.94
68712;BME280;55690;51.566;19.198;2024-03-29T08:59:57;100659.70;;;16.19;66.98
68712;BME280;55690;51.566;19.198;2024-03-29T09:04:03;100669.83;;;16.09;66.75
68712;BME280;55690;51.566;19.198;2024-03-29T09:08:12;100663.38;;;15.53;66.64
68712;BME280;55690;51.566;19.198;2024-03-29T09:12:16;100677.90;;;15.73;66.72
68712;BME280;55690;51.566;19.198;2024-03-29T09:16:22;100664.72;;;15.96;68.79
68712;BME280;55690;51.566;19.198;2024-03-29T09:20:28;100676.93;;;15.45;67.71
68712;BME280;55690;51.566;19.198;2024-03-29T09:24:34;100688.99;;;15.72;65.98
68712;BME280;55690;51.566;19.198;2024-03-29T09:28:40;100692.02;;;16.15;67.25
68712;BME280;55690;51.566;19.198;2024-03-29T09:32:46;100688.05;;;16.55;66.97
68712;BME280;55690;51.566;19.198;2024-03-29T09:36:52;100709.69;;;16.58;64.33
68712;BME280;55690;51.566;19.198;2024-03-29T09:41:07;100690.08;;;16.53;63.44
68712;BME280;55690;51.566;19.198;2024-03-29T09:45:11;100693.24;;;16.58;64.52
68712;BME280;55690;51.566;19.198;2024-03-29T09:49:13;100695.42;;;16.54;66.18
68712;BME280;55690;51.566;19.198;2024-03-29T09:53:19;100697.53;;;16.70;65.86
68712;BME280;55690;51.566;19.198;2024-03-29T09:57:23;100711.54;;;16.40;63.56
68712;BME280;55690;51.566;19.198;2024-03-29T10:01:32;100709.47;;;16.14;62.86
68712;BME280;55690;51.566;19.198;2024-03-29T10:05:36;100707.02;;;16.11;62.45
68712;BME280;55690;51.566;19.198;2024-03-29T10:09:43;100704.55;;;16.18;63.98
68712;BME280;55690;51.566;19.198;2024-03-29T10:13:48;100706.24;;;16.28;64.33
68712;BME280;55690;51.566;19.198;2024-03-29T10:17:54;100698.51;;;16.14;62.50
68712;BME280;55690;51.566;19.198;2024-03-29T10:22:06;100692.98;;;15.96;61.65
68712;BME280;55690;51.566;19.198;2024-03-29T10:30:14;100679.74;;;16.19;61.20
68712;BME280;55690;51.566;19.198;2024-03-29T10:34:22;100684.36;;;16.46;62.97
68712;BME280;55690;51.566;19.198;2024-03-29T10:38:27;100669.98;;;16.62;62.58
68712;BME280;55690;51.566;19.198;2024-03-29T10:42:32;100647.81;;;16.55;61.66
68712;BME280;55690;51.566;19.198;2024-03-29T10:46:39;100654.70;;;16.42;61.96
68712;BME280;55690;51.566;19.198;2024-03-29T10:50:45;100655.57;;;16.60;61.94
68712;BME280;55690;51.566;19.198;2024-03-29T10:54:52;100650.13;;;16.33;62.14
68712;BME280;55690;51.566;19.198;2024-03-29T10:59:01;100655.26;;;16.45;62.99
68712;BME280;55690;51.566;19.198;2024-03-29T11:03:13;100642.21;;;16.02;61.77
68712;BME280;55690;51.566;19.198;2024-03-29T11:07:20;100637.07;;;16.17;62.79
68712;BME280;55690;51.566;19.198;2024-03-29T11:11:24;100640.56;;;16.09;61.05
68712;BME280;55690;51.566;19.198;2024-03-29T11:15:35;100637.15;;;16.52;62.76
68712;BME280;55690;51.566;19.198;2024-03-29T11:19:39;100639.73;;;16.81;61.82
68712;BME280;55690;51.566;19.198;2024-03-29T11:23:41;100641.91;;;16.95;60.79
68712;BME280;55690;51.566;19.198;2024-03-29T11:27:43;100624.51;;;17.05;57.96
68712;BME280;55690;51.566;19.198;2024-03-29T11:31:46;100605.20;;;17.32;58.76
68712;BME280;55690;51.566;19.198;2024-03-29T11:35:52;100605.06;;;17.16;58.78
68712;BME280;55690;51.566;19.198;2024-03-29T11:39:59;100609.05;;;17.21;60.18
68712;BME280;55690;51.566;19.198;2024-03-29T11:44:04;100611.26;;;17.00;58.81
68712;BME280;55690;51.566;19.198;2024-03-29T11:48:12;100599.20;;;16.93;58.61
68712;BME280;55690;51.566;19.198;2024-03-29T11:52:18;100605.35;;;17.31;60.52
68712;BME280;55690;51.566;19.198;2024-03-29T11:56:23;100611.86;;;17.81;60.70
68712;BME280;55690;51.566;19.198;2024-03-29T12:00:29;100616.64;;;17.71;58.96
68712;BME280;55690;51.566;19.198;2024-03-29T12:04:35;100611.47;;;18.02;59.65
68712;BME280;55690;51.566;19.198;2024-03-29T12:08:42;100615.41;;;18.00;57.23
68712;BME280;55690;51.566;19.198;2024-03-29T12:12:48;100613.31;;;17.93;56.81
68712;BME280;55690;51.566;19.198;2024-03-29T12:16:54;100623.71;;;17.82;55.69
68712;BME280;55690;51.566;19.198;2024-03-29T12:21:00;100634.73;;;18.24;56.66
68712;BME280;55690;51.566;19.198;2024-03-29T12:25:07;100623.69;;;18.08;55.02
68712;BME280;55690;51.566;19.198;2024-03-29T12:29:13;100626.60;;;18.06;54.96
68712;BME280;55690;51.566;19.198;2024-03-29T12:33:20;100619.79;;;18.18;56.61
68712;BME280;55690;51.566;19.198;2024-03-29T12:37:25;100621.27;;;18.05;54.86
68712;BME280;55690;51.566;19.198;2024-03-29T12:41:31;100635.44;;;18.26;56.71
68712;BME280;55690;51.566;19.198;2024-03-29T12:45:39;100637.38;;;18.00;56.78
68712;BME280;55690;51.566;19.198;2024-03-29T12:49:43;100635.63;;;18.33;55.80
68712;BME280;55690;51.566;19.198;2024-03-29T12:53:49;100652.73;;;17.58;55.43
68712;BME280;55690;51.566;19.198;2024-03-29T12:57:56;100651.71;;;17.59;55.22
68712;BME280;55690;51.566;19.198;2024-03-29T13:02:01;100654.84;;;17.65;57.18
68712;BME280;55690;51.566;19.198;2024-03-29T13:06:08;100643.02;;;17.46;56.99
68712;BME280;55690;51.566;19.198;2024-03-29T13:10:14;100647.41;;;17.83;57.51
68712;BME280;55690;51.566;19.198;2024-03-29T13:14:22;100642.21;;;17.72;56.08
68712;BME280;55690;51.566;19.198;2024-03-29T13:18:27;100629.42;;;17.88;56.10
68712;BME280;55690;51.566;19.198;2024-03-29T13:22:32;100627.16;;;17.58;56.88
68712;BME280;55690;51.566;19.198;2024-03-29T13:26:38;100617.62;;;17.44;55.83
68712;BME280;55690;51.566;19.198;2024-03-29T13:30:45;100621.18;;;17.62;55.68
68712;BME280;55690;51.566;19.198;2024-03-29T13:34:52;100630.56;;;17.34;56.16
68712;BME280;55690;51.566;19.198;2024-03-29T13:38:57;100634.72;;;17.38;55.69
68712;BME280;55690;51.566;19.198;2024-03-29T13:43:04;100594.79;;;17.18;57.03
68712;BME280;55690;51.566;19.198;2024-03-29T13:47:09;100635.16;;;17.69;57.61
68712;BME280;55690;51.566;19.198;2024-03-29T13:51:17;100630.00;;;17.48;56.18
68712;BME280;55690;51.566;19.198;2024-03-29T13:55:22;100602.98;;;17.61;57.60
68712;BME280;55690;51.566;19.198;2024-03-29T13:59:28;100613.52;;;17.48;56.45
68712;BME280;55690;51.566;19.198;2024-03-29T14:03:34;100614.66;;;17.63;57.53
68712;BME280;55690;51.566;19.198;2024-03-29T14:07:40;100608.02;;;17.66;56.70
68712;BME280;55690;51.566;19.198;2024-03-29T14:11:46;100599.20;;;17.88;58.22
68712;BME280;55690;51.566;19.198;2024-03-29T14:15:53;100588.25;;;17.97;57.15
68712;BME280;55690;51.566;19.198;2024-03-29T14:19:59;100584.06;;;17.84;57.78
68712;BME280;55690;51.566;19.198;2024-03-29T14:24:05;100588.42;;;17.95;58.10
68712;BME280;55690;51.566;19.198;2024-03-29T14:28:11;100594.99;;;17.68;57.77
68712;BME280;55690;51.566;19.198;2024-03-29T14:32:17;100589.02;;;17.73;58.04
68712;BME280;55690;51.566;19.198;2024-03-29T14:36:23;100589.58;;;17.58;59.16
68712;BME280;55690;51.566;19.198;2024-03-29T14:40:30;100589.52;;;17.76;59.13
68712;BME280;55690;51.566;19.198;2024-03-29T14:44:35;100593.48;;;17.74;59.07
68712;BME280;55690;51.566;19.198;2024-03-29T14:48:42;100594.42;;;17.65;58.82
68712;BME280;55690;51.566;19.198;2024-03-29T14:52:48;100581.92;;;17.44;57.16
68712;BME280;55690;51.566;19.198;2024-03-29T14:56:54;100578.26;;;17.36;57.85
68712;BME280;55690;51.566;19.198;2024-03-29T15:01:00;100582.02;;;17.35;59.04
68712;BME280;55690;51.566;19.198;2024-03-29T15:05:07;100585.85;;;17.42;59.24
68712;BME280;55690;51.566;19.198;2024-03-29T15:09:13;100583.65;;;17.45;58.49
68712;BME280;55690;51.566;19.198;2024-03-29T15:13:19;100584.08;;;17.58;59.03
68712;BME280;55690;51.566;19.198;2024-03-29T15:17:25;100583.01;;;17.51;59.32
68712;BME280;55690;51.566;19.198;2024-03-29T15:21:32;100582.46;;;17.48;58.10
68712;BME280;55690;51.566;19.198;2024-03-29T15:25:37;100576.21;;;17.12;57.64
68712;BME280;55690;51.566;19.198;2024-03-29T15:29:43;100583.33;;;17.22;58.71
68712;BME280;55690;51.566;19.198;2024-03-29T15:33:51;100570.70;;;17.29;60.54
68712;BME280;55690;51.566;19.198;2024-03-29T15:37:56;100571.98;;;17.17;59.85
68712;BME280;55690;51.566;19.198;2024-03-29T15:42:02;100570.43;;;16.97;58.86
68712;BME280;55690;51.566;19.198;2024-03-29T15:46:08;100566.59;;;16.90;58.82
68712;BME280;55690;51.566;19.198;2024-03-29T15:50:14;100559.41;;;16.89;59.85
68712;BME280;55690;51.566;19.198;2024-03-29T15:54:20;100546.72;;;16.88;59.89
68712;BME280;55690;51.566;19.198;2024-03-29T15:58:26;100548.76;;;16.86;59.50
68712;BME280;55690;51.566;19.198;2024-03-29T16:02:38;100539.52;;;16.87;59.95
68712;BME280;55690;51.566;19.198;2024-03-29T16:06:44;100534.98;;;16.78;59.51
68712;BME280;55690;51.566;19.198;2024-03-29T16:14:59;100552.99;;;16.80;61.71
68712;BME280;55690;51.566;19.198;2024-03-29T16:19:00;100545.48;;;16.65;62.09
68712;BME280;55690;51.566;19.198;2024-03-29T16:23:04;100543.08;;;16.52;61.52
68712;BME280;55690;51.566;19.198;2024-03-29T16:27:10;100548.56;;;16.52;62.56
68712;BME280;55690;51.566;19.198;2024-03-29T16:31:16;100544.83;;;16.35;62.03
68712;BME280;55690;51.566;19.198;2024-03-29T16:35:22;100531.03;;;16.27;62.29
68712;BME280;55690;51.566;19.198;2024-03-29T16:39:28;100531.24;;;16.16;62.66
68712;BME280;55690;51.566;19.198;2024-03-29T16:43:34;100538.30;;;16.18;62.12
68712;BME280;55690;51.566;19.198;2024-03-29T16:47:40;100543.32;;;16.23;63.19
68712;BME280;55690;51.566;19.198;2024-03-29T16:51:47;100546.88;;;16.06;62.65
68712;BME280;55690;51.566;19.198;2024-03-29T16:55:53;100541.48;;;15.96;63.43
68712;BME280;55690;51.566;19.198;2024-03-29T16:59:59;100546.70;;;15.89;64.44
68712;BME280;55690;51.566;19.198;2024-03-29T17:04:05;100561.64;;;15.68;64.08
68712;BME280;55690;51.566;19.198;2024-03-29T17:08:12;100563.84;;;15.54;64.81
68712;BME280;55690;51.566;19.198;2024-03-29T17:12:18;100570.66;;;15.41;65.02
68712;BME280;55690;51.566;19.198;2024-03-29T17:16:24;100580.31;;;15.35;66.26
68712;BME280;55690;51.566;19.198;2024-03-29T17:20:30;100575.30;;;15.21;66.31
68712;BME280;55690;51.566;19.198;2024-03-29T17:24:37;100571.59;;;15.12;67.26
68712;BME280;55690;51.566;19.198;2024-03-29T17:28:42;100569.88;;;15.02;68.28
68712;BME280;55690;51.566;19.198;2024-03-29T17:32:49;100568.59;;;14.96;68.16
68712;BME280;55690;51.566;19.198;2024-03-29T17:36:55;100558.95;;;14.82;68.51
68712;BME280;55690;51.566;19.198;2024-03-29T17:41:01;100562.70;;;14.81;67.43
68712;BME280;55690;51.566;19.198;2024-03-29T17:45:08;100554.64;;;14.89;67.10
68712;BME280;55690;51.566;19.198;2024-03-29T17:49:13;100569.16;;;14.90;67.08
68712;BME280;55690;51.566;19.198;2024-03-29T17:53:19;100584.28;;;14.84;66.98
68712;BME280;55690;51.566;19.198;2024-03-29T17:57:26;100583.27;;;14.85;67.40
68712;BME280;55690;51.566;19.198;2024-03-29T18:01:32;100594.78;;;14.79;69.43
68712;BME280;55690;51.566;19.198;2024-03-29T18:05:38;100594.92;;;14.78;69.19
68712;BME280;55690;51.566;19.198;2024-03-29T18:09:45;100598.66;;;14.77;68.82
68712;BME280;55690;51.566;19.198;2024-03-29T18:13:50;100591.50;;;14.66;69.28
68712;BME280;55690;51.566;19.198;2024-03-29T18:17:56;100598.55;;;14.69;68.67
68712;BME280;55690;51.566;19.198;2024-03-29T18:22:03;100600.70;;;14.65;68.85
68712;BME280;55690;51.566;19.198;2024-03-29T18:26:09;100611.19;;;14.60;69.18
68712;BME280;55690;51.566;19.198;2024-03-29T18:30:15;100613.77;;;14.52;68.99
68712;BME280;55690;51.566;19.198;2024-03-29T18:34:21;100604.40;;;14.45;69.53
68712;BME280;55690;51.566;19.198;2024-03-29T18:38:27;100608.58;;;14.49;69.71
68712;BME280;55690;51.566;19.198;2024-03-29T18:42:37;100602.68;;;14.44;69.58
68712;BME280;55690;51.566;19.198;2024-03-29T18:46:40;100596.93;;;14.47;69.62
68712;BME280;55690;51.566;19.198;2024-03-29T18:50:52;100588.17;;;14.53;69.82
68712;BME280;55690;51.566;19.198;2024-03-29T18:54:54;100583.28;;;14.56;70.10
68712;BME280;55690;51.566;19.198;2024-03-29T18:58:58;100582.27;;;14.57;70.57
68712;BME280;55690;51.566;19.198;2024-03-29T19:03:04;100579.41;;;14.59;70.15
68712;BME280;55690;51.566;19.198;2024-03-29T19:07:10;100579.26;;;14.60;70.19
68712;BME280;55690;51.566;19.198;2024-03-29T19:11:17;100576.95;;;14.56;70.00
68712;BME280;55690;51.566;19.198;2024-03-29T19:15:26;100577.96;;;14.55;70.03
68712;BME280;55690;51.566;19.198;2024-03-29T19:19:29;100576.95;;;14.56;69.86
68712;BME280;55690;51.566;19.198;2024-03-29T19:23:35;100570.77;;;14.54;70.46
68712;BME280;55690;51.566;19.198;2024-03-29T19:27:42;100568.76;;;14.56;70.80
68712;BME280;55690;51.566;19.198;2024-03-29T19:31:48;100561.84;;;14.52;71.13
68712;BME280;55690;51.566;19.198;2024-03-29T19:35:54;100569.18;;;14.51;71.52
68712;BME280;55690;51.566;19.198;2024-03-29T19:40:00;100562.57;;;14.54;71.79
68712;BME280;55690;51.566;19.198;2024-03-29T19:44:06;100565.73;;;14.49;71.71
68712;BME280;55690;51.566;19.198;2024-03-29T19:48:12;100570.63;;;14.46;72.22
68712;BME280;55690;51.566;19.198;2024-03-29T19:52:18;100562.70;;;14.43;72.34
68712;BME280;55690;51.566;19.198;2024-03-29T19:56:24;100564.66;;;14.31;72.29
68712;BME280;55690;51.566;19.198;2024-03-29T20:00:31;100528.71;;;14.07;72.63
68712;BME280;55690;51.566;19.198;2024-03-29T20:04:37;100562.95;;;14.20;72.28
68712;BME280;55690;51.566;19.198;2024-03-29T20:08:43;100577.99;;;14.05;73.62
68712;BME280;55690;51.566;19.198;2024-03-29T20:12:49;100575.37;;;13.94;74.36
68712;BME280;55690;51.566;19.198;2024-03-29T20:16:56;100581.09;;;13.81;74.54
68712;BME280;55690;51.566;19.198;2024-03-29T20:21:02;100590.05;;;13.62;74.95
68712;BME280;55690;51.566;19.198;2024-03-29T20:25:08;100580.50;;;13.47;74.99
68712;BME280;55690;51.566;19.198;2024-03-29T20:29:14;100595.40;;;13.43;76.08
68712;BME280;55690;51.566;19.198;2024-03-29T20:33:20;100587.52;;;13.40;75.54
68712;BME280;55690;51.566;19.198;2024-03-29T20:37:26;100582.74;;;13.33;76.08
68712;BME280;55690;51.566;19.198;2024-03-29T20:41:32;100586.99;;;13.25;76.50
68712;BME280;55690;51.566;19.198;2024-03-29T20:45:38;100590.39;;;13.18;76.58
68712;BME280;55690;51.566;19.198;2024-03-29T20:49:48;100585.97;;;13.06;76.79
68712;BME280;55690;51.566;19.198;2024-03-29T20:53:51;100586.91;;;12.95;77.79
68712;BME280;55690;51.566;19.198;2024-03-29T20:57:57;100587.79;;;12.95;77.42
68712;BME280;55690;51.566;19.198;2024-03-29T21:02:03;100590.04;;;12.90;78.44
68712;BME280;55690;51.566;19.198;2024-03-29T21:06:17;100584.64;;;12.79;78.86
68712;BME280;55690;51.566;19.198;2024-03-29T21:10:18;100585.17;;;12.73;79.69
68712;BME280;55690;51.566;19.198;2024-03-29T21:14:22;100584.42;;;12.71;80.05
68712;BME280;55690;51.566;19.198;2024-03-29T21:18:28;100590.88;;;12.70;80.54
68712;BME280;55690;51.566;19.198;2024-03-29T21:22:34;100600.38;;;12.76;79.92